createdAt,value
2023-05-10T00:00:21.518Z,2.20
2023-05-10T00:01:23.136Z,2.85
2023-05-10T00:02:25.678Z,2.33
2023-05-10T00:03:27.435Z,2.70
2023-05-10T00:04:29.105Z,2.70
2023-05-10T00:05:30.903Z,2.42
2023-05-10T00:06:32.700Z,2.23
2023-05-10T00:07:34.368Z,2.15
2023-05-10T00:08:36.058Z,2.30
2023-05-10T00:09:37.931Z,2.42
2023-05-10T00:10:39.630Z,2.80
2023-05-10T00:11:41.274Z,2.40
2023-05-10T00:12:43.139Z,2.65
2023-05-10T00:13:44.768Z,2.60
2023-05-10T00:14:46.860Z,2.50
2023-05-10T00:15:48.411Z,2.38
2023-05-10T00:16:50.083Z,2.60
2023-05-10T00:17:51.718Z,2.65
2023-05-10T00:18:53.304Z,2.63
2023-05-10T00:19:56.285Z,2.53
2023-05-10T00:20:57.869Z,2.83
2023-05-10T00:22:00.032Z,2.70
2023-05-10T00:23:01.675Z,2.63
2023-05-10T00:24:03.511Z,2.47
2023-05-10T00:25:05.636Z,2.53
2023-05-10T00:26:07.251Z,2.50
2023-05-10T00:27:09.443Z,2.50
2023-05-10T00:28:11.312Z,2.70
2023-05-10T00:29:12.952Z,3.08
2023-05-10T00:30:14.794Z,2.65
2023-05-10T00:31:16.670Z,2.25
2023-05-10T00:32:18.340Z,2.75
2023-05-10T00:33:20.719Z,2.72
2023-05-10T00:34:22.418Z,2.72
2023-05-10T00:35:24.225Z,2.50
2023-05-10T00:36:25.910Z,2.83
2023-05-10T00:37:27.498Z,3.00
2023-05-10T00:38:30.126Z,2.95
2023-05-10T00:39:31.743Z,2.95
2023-05-10T00:40:33.336Z,3.20
2023-05-10T00:41:34.920Z,3.45
2023-05-10T00:42:36.549Z,3.05
2023-05-10T00:43:38.189Z,2.70
2023-05-10T00:44:39.874Z,3.15
2023-05-10T00:45:41.472Z,2.92
2023-05-10T00:46:43.225Z,2.92
2023-05-10T00:47:44.884Z,3.40
2023-05-10T00:48:46.708Z,3.33
2023-05-10T00:49:48.353Z,3.40
2023-05-10T00:50:50.122Z,3.40
2023-05-10T00:51:51.707Z,3.65
2023-05-10T00:52:53.309Z,3.65
2023-05-10T00:53:54.951Z,4.03
2023-05-10T00:54:56.625Z,3.60
2023-05-10T00:55:58.375Z,3.30
2023-05-10T00:56:59.976Z,3.47
2023-05-10T00:58:02.556Z,3.63
2023-05-10T00:59:04.458Z,3.53
2023-05-10T01:00:08.795Z,3.72
2023-05-10T01:01:11.408Z,3.72
2023-05-10T01:02:14.189Z,3.95
2023-05-10T01:03:16.063Z,3.65
2023-05-10T01:04:17.721Z,3.33
2023-05-10T01:05:19.486Z,4.10
2023-05-10T01:06:21.101Z,3.65
2023-05-10T01:07:22.661Z,3.80
2023-05-10T01:08:24.261Z,3.93
2023-05-10T01:09:27.470Z,4.07
2023-05-10T01:10:30.682Z,3.75
2023-05-10T01:11:32.348Z,4.10
2023-05-10T01:12:35.798Z,4.07
2023-05-10T01:13:38.933Z,4.38
2023-05-10T01:14:40.645Z,3.47
2023-05-10T01:15:42.311Z,3.42
2023-05-10T01:16:43.918Z,3.90
2023-05-10T01:17:46.329Z,3.65
2023-05-10T01:18:47.946Z,3.90
2023-05-10T01:19:49.529Z,3.80
2023-05-10T01:21:01.577Z,4.15
2023-05-10T01:22:21.381Z,4.25
2023-05-10T01:23:37.324Z,4.03
2023-05-10T01:25:12.308Z,4.13
2023-05-10T01:26:35.180Z,3.50
2023-05-10T01:27:49.470Z,3.97
2023-05-10T01:29:31.262Z,4.03
2023-05-10T01:30:47.802Z,4.40
2023-05-10T01:31:52.472Z,3.93
2023-05-10T01:33:16.549Z,3.45
2023-05-10T01:34:20.613Z,4.68
2023-05-10T01:35:27.876Z,4.45
2023-05-10T01:36:33.807Z,3.55
2023-05-10T01:37:50.518Z,3.53
2023-05-10T01:38:54.402Z,4.00
2023-05-10T01:40:04.094Z,4.28
2023-05-10T01:41:17.098Z,4.15
2023-05-10T01:42:22.592Z,4.30
2023-05-10T01:43:27.647Z,4.10
2023-05-10T01:44:29.218Z,4.10
2023-05-10T01:45:38.871Z,4.45
2023-05-10T01:46:40.939Z,4.25
2023-05-10T01:47:47.899Z,4.00
2023-05-10T01:48:49.933Z,4.07
2023-05-10T01:49:53.156Z,4.55
2023-05-10T01:50:54.829Z,4.10
2023-05-10T01:52:00.481Z,4.78
2023-05-10T01:53:02.611Z,4.55
2023-05-10T01:54:04.426Z,3.90
2023-05-10T01:55:07.318Z,4.20
2023-05-10T01:56:08.902Z,4.35
2023-05-10T01:57:10.974Z,4.00
2023-05-10T01:58:14.928Z,4.25
2023-05-10T01:59:17.943Z,4.53
2023-05-10T02:00:20.010Z,4.10
2023-05-10T02:01:21.893Z,4.43
2023-05-10T02:02:23.716Z,4.15
2023-05-10T02:03:25.688Z,4.60
2023-05-10T02:04:27.472Z,4.43
2023-05-10T02:05:29.136Z,4.82
2023-05-10T02:06:30.717Z,3.97
2023-05-10T02:07:32.290Z,5.20
2023-05-10T02:08:34.404Z,4.88
2023-05-10T02:09:36.180Z,4.50
2023-05-10T02:10:37.874Z,4.57
2023-05-10T02:11:40.228Z,4.40
2023-05-10T02:12:46.035Z,4.43
2023-05-10T02:13:48.417Z,4.30
2023-05-10T02:14:49.990Z,4.40
2023-05-10T02:15:51.616Z,4.32
2023-05-10T02:16:53.251Z,4.00
2023-05-10T02:17:56.069Z,4.30
2023-05-10T02:18:57.686Z,4.53
2023-05-10T02:20:00.070Z,4.55
2023-05-10T02:21:01.811Z,4.07
2023-05-10T02:22:03.610Z,4.13
2023-05-10T02:23:05.268Z,4.20
2023-05-10T02:24:07.029Z,4.50
2023-05-10T02:25:09.159Z,4.60
2023-05-10T02:26:10.828Z,4.82
2023-05-10T02:27:12.423Z,4.60
2023-05-10T02:28:14.179Z,4.85
2023-05-10T02:29:15.790Z,4.32
2023-05-10T02:30:17.912Z,4.93
2023-05-10T02:31:20.514Z,4.20
2023-05-10T02:32:22.745Z,4.50
2023-05-10T02:33:24.562Z,4.47
2023-05-10T02:34:29.333Z,4.50
2023-05-10T02:35:30.992Z,4.47
2023-05-10T02:36:32.972Z,4.60
2023-05-10T02:37:34.604Z,4.32
2023-05-10T02:38:36.196Z,4.70
2023-05-10T02:39:37.920Z,4.40
2023-05-10T02:40:39.563Z,4.47
2023-05-10T02:41:44.538Z,4.63
2023-05-10T02:42:46.128Z,4.10
2023-05-10T02:43:47.714Z,4.20
2023-05-10T02:44:50.539Z,4.35
2023-05-10T02:45:52.200Z,4.77
2023-05-10T02:46:53.883Z,4.60
2023-05-10T02:47:55.897Z,4.50
2023-05-10T02:48:57.498Z,4.38
2023-05-10T02:49:59.059Z,4.10
2023-05-10T02:51:02.724Z,5.15
2023-05-10T02:52:06.784Z,4.60
2023-05-10T02:53:11.851Z,4.13
2023-05-10T02:54:25.664Z,4.80
2023-05-10T02:55:28.743Z,4.78
2023-05-10T02:56:33.196Z,4.27
2023-05-10T02:57:35.091Z,4.45
2023-05-10T02:58:36.747Z,4.53
2023-05-10T02:59:38.497Z,4.22
2023-05-10T03:00:40.081Z,5.10
2023-05-10T03:01:41.718Z,4.88
2023-05-10T03:02:43.384Z,4.82
2023-05-10T03:03:45.072Z,4.30
2023-05-10T03:04:46.699Z,4.75
2023-05-10T03:05:48.374Z,4.68
2023-05-10T03:06:50.014Z,5.10
2023-05-10T03:07:52.019Z,4.30
2023-05-10T03:08:53.645Z,4.45
2023-05-10T03:09:55.600Z,4.43
2023-05-10T03:11:03.888Z,5.07
2023-05-10T03:12:11.466Z,5.10
2023-05-10T03:13:40.992Z,3.97
2023-05-10T03:15:21.790Z,5.35
2023-05-10T03:16:36.931Z,5.00
2023-05-10T03:17:53.717Z,4.40
2023-05-10T03:19:03.570Z,3.77
2023-05-10T03:20:08.685Z,4.15
2023-05-10T03:21:13.399Z,4.57
2023-05-10T03:22:14.994Z,4.40
2023-05-10T03:23:19.507Z,4.40
2023-05-10T03:24:24.366Z,4.45
2023-05-10T03:25:26.163Z,4.50
2023-05-10T03:26:28.296Z,4.43
2023-05-10T03:27:29.893Z,5.13
2023-05-10T03:28:31.476Z,4.05
2023-05-10T03:29:33.093Z,4.10
2023-05-10T03:30:34.738Z,4.25
2023-05-10T03:31:36.464Z,3.90
2023-05-10T03:32:38.145Z,4.15
2023-05-10T03:33:50.034Z,4.35
2023-05-10T03:34:51.628Z,3.70
2023-05-10T03:35:53.207Z,3.95
2023-05-10T03:36:55.060Z,4.32
2023-05-10T03:37:56.667Z,4.03
2023-05-10T03:38:58.242Z,3.95
2023-05-10T03:39:59.822Z,4.00
2023-05-10T03:41:01.460Z,4.38
2023-05-10T03:42:03.133Z,3.88
2023-05-10T03:43:05.134Z,4.25
2023-05-10T03:44:06.715Z,4.95
2023-05-10T03:45:09.089Z,4.15
2023-05-10T03:46:12.051Z,4.82
2023-05-10T03:47:13.653Z,4.25
2023-05-10T03:48:15.252Z,4.00
2023-05-10T03:49:16.859Z,4.00
2023-05-10T03:50:19.572Z,4.33
2023-05-10T03:51:21.538Z,4.45
2023-05-10T03:52:23.153Z,4.13
2023-05-10T03:53:24.857Z,3.97
2023-05-10T03:54:26.992Z,3.95
2023-05-10T03:55:29.240Z,4.00
2023-05-10T03:56:31.152Z,3.85
2023-05-10T03:57:32.911Z,4.30
2023-05-10T03:58:34.553Z,4.03
2023-05-10T03:59:36.513Z,3.90
2023-05-10T04:00:38.116Z,3.77
2023-05-10T04:01:39.778Z,4.25
2023-05-10T04:02:42.080Z,4.00
2023-05-10T04:03:43.891Z,4.15
2023-05-10T04:04:45.583Z,4.78
2023-05-10T04:05:47.647Z,4.80
2023-05-10T04:06:49.260Z,3.97
2023-05-10T04:07:52.072Z,4.43
2023-05-10T04:08:53.761Z,3.72
2023-05-10T04:09:55.664Z,4.05
2023-05-10T04:11:09.966Z,4.13
2023-05-10T04:12:11.555Z,3.90
2023-05-10T04:13:13.199Z,3.97
2023-05-10T04:14:14.891Z,3.70
2023-05-10T04:15:16.531Z,3.53
2023-05-10T04:16:18.170Z,4.13
2023-05-10T04:17:19.851Z,4.10
2023-05-10T04:18:21.492Z,4.10
2023-05-10T04:19:23.119Z,3.80
2023-05-10T04:20:24.734Z,3.90
2023-05-10T04:21:26.320Z,3.53
2023-05-10T04:22:28.907Z,4.00
2023-05-10T04:23:30.551Z,3.83
2023-05-10T04:24:32.210Z,3.80
2023-05-10T04:25:36.252Z,4.03
2023-05-10T04:26:37.840Z,3.90
2023-05-10T04:27:39.522Z,3.88
2023-05-10T04:28:41.106Z,3.58
2023-05-10T04:29:42.698Z,3.58
2023-05-10T04:30:44.415Z,3.78
2023-05-10T04:31:46.073Z,4.40
2023-05-10T04:32:47.688Z,3.78
2023-05-10T04:33:49.308Z,4.18
2023-05-10T04:34:52.279Z,3.70
2023-05-10T04:35:53.924Z,3.40
2023-05-10T04:36:55.529Z,3.85
2023-05-10T04:37:57.127Z,3.55
2023-05-10T04:38:58.728Z,4.50
2023-05-10T04:40:01.169Z,3.50
2023-05-10T04:41:09.518Z,3.55
2023-05-10T04:42:11.197Z,3.53
2023-05-10T04:43:12.853Z,3.83
2023-05-10T04:44:14.472Z,3.97
2023-05-10T04:45:16.699Z,3.80
2023-05-10T04:46:18.333Z,4.43
2023-05-10T04:47:19.998Z,3.35
2023-05-10T04:48:21.683Z,3.42
2023-05-10T04:49:23.446Z,3.75
2023-05-10T04:50:25.043Z,3.50
2023-05-10T04:51:26.660Z,3.70
2023-05-10T04:52:28.295Z,3.20
2023-05-10T04:53:29.931Z,3.45
2023-05-10T04:54:31.514Z,3.50
2023-05-10T04:55:33.145Z,3.97
2023-05-10T04:56:34.848Z,3.58
2023-05-10T04:57:36.465Z,3.70
2023-05-10T04:58:38.398Z,3.92
2023-05-10T04:59:40.047Z,3.85
2023-05-10T05:00:41.651Z,3.78
2023-05-10T05:01:43.529Z,3.90
2023-05-10T05:02:48.083Z,3.67
2023-05-10T05:03:49.815Z,3.60
2023-05-10T05:04:52.052Z,4.05
2023-05-10T05:05:53.640Z,3.65
2023-05-10T05:06:55.209Z,3.80
2023-05-10T05:07:57.320Z,3.60
2023-05-10T05:08:59.033Z,3.67
2023-05-10T05:10:00.844Z,4.45
2023-05-10T05:11:02.550Z,4.20
2023-05-10T05:12:04.403Z,3.85
2023-05-10T05:13:06.338Z,3.77
2023-05-10T05:14:07.944Z,3.95
2023-05-10T05:15:10.794Z,3.30
2023-05-10T05:16:12.520Z,3.70
2023-05-10T05:17:14.274Z,4.13
2023-05-10T05:18:15.880Z,3.78
2023-05-10T05:19:17.599Z,3.95
2023-05-10T05:20:20.058Z,3.60
2023-05-10T05:21:22.540Z,3.78
2023-05-10T05:22:29.036Z,3.85
2023-05-10T05:23:31.256Z,4.20
2023-05-10T05:24:37.481Z,3.60
2023-05-10T05:25:39.100Z,3.78
2023-05-10T05:26:40.684Z,3.58
2023-05-10T05:27:42.302Z,4.25
2023-05-10T05:28:44.122Z,3.70
2023-05-10T05:29:45.697Z,3.92
2023-05-10T05:30:47.515Z,4.18
2023-05-10T05:31:49.144Z,3.67
2023-05-10T05:32:50.802Z,3.63
2023-05-10T05:33:52.756Z,3.37
2023-05-10T05:34:54.414Z,3.95
2023-05-10T05:35:56.016Z,3.60
2023-05-10T05:36:57.617Z,4.07
2023-05-10T05:37:59.239Z,3.85
2023-05-10T05:39:00.849Z,3.88
2023-05-10T05:40:02.884Z,4.22
2023-05-10T05:41:04.529Z,3.00
2023-05-10T05:42:06.220Z,2.97
2023-05-10T05:43:07.818Z,3.10
2023-05-10T05:44:09.519Z,3.30
2023-05-10T05:45:14.386Z,3.13
2023-05-10T05:46:16.155Z,3.10
2023-05-10T05:47:17.807Z,2.90
2023-05-10T05:48:19.464Z,2.90
2023-05-10T05:49:21.136Z,3.33
2023-05-10T05:50:22.736Z,3.30
2023-05-10T05:51:24.445Z,3.03
2023-05-10T05:52:26.041Z,3.40
2023-05-10T05:53:27.718Z,3.20
2023-05-10T05:54:29.420Z,2.97
2023-05-10T05:55:32.581Z,3.22
2023-05-10T05:56:34.261Z,3.20
2023-05-10T05:57:35.886Z,2.80
2023-05-10T05:58:37.511Z,3.20
2023-05-10T05:59:42.997Z,2.72
2023-05-10T06:00:44.812Z,2.88
2023-05-10T06:01:46.543Z,3.03
2023-05-10T06:02:49.037Z,2.95
2023-05-10T06:03:53.177Z,3.15
2023-05-10T06:04:55.176Z,2.83
2023-05-10T06:05:56.767Z,2.83
2023-05-10T06:06:58.503Z,2.80
2023-05-10T06:08:01.144Z,4.03
2023-05-10T06:09:02.781Z,3.15
2023-05-10T06:10:05.009Z,2.70
2023-05-10T06:11:06.590Z,2.70
2023-05-10T06:12:08.236Z,2.63
2023-05-10T06:13:09.872Z,2.70
2023-05-10T06:14:11.553Z,2.60
2023-05-10T06:15:13.718Z,2.63
2023-05-10T06:16:15.670Z,2.90
2023-05-10T06:17:17.310Z,2.67
2023-05-10T06:18:18.992Z,3.00
2023-05-10T06:19:20.574Z,2.38
2023-05-10T06:20:22.181Z,3.10
2023-05-10T06:21:24.779Z,3.10
2023-05-10T06:22:26.480Z,3.15
2023-05-10T06:23:28.119Z,3.03
2023-05-10T06:24:29.824Z,2.58
2023-05-10T06:25:32.148Z,2.73
2023-05-10T06:26:34.184Z,3.22
2023-05-10T06:27:35.931Z,3.20
2023-05-10T06:28:39.436Z,2.72
2023-05-10T06:29:41.040Z,2.63
2023-05-10T06:30:42.723Z,3.00
2023-05-10T06:31:44.404Z,2.65
2023-05-10T06:32:46.536Z,2.95
2023-05-10T06:33:48.182Z,2.78
2023-05-10T06:34:49.780Z,2.90
2023-05-10T06:35:51.384Z,2.70
2023-05-10T06:36:53.040Z,2.55
2023-05-10T06:37:54.714Z,2.78
2023-05-10T06:38:56.609Z,2.92
2023-05-10T06:39:58.242Z,2.67
2023-05-10T06:40:59.838Z,2.28
2023-05-10T06:42:03.766Z,2.30
2023-05-10T06:43:05.698Z,2.47
2023-05-10T06:44:07.316Z,2.60
2023-05-10T06:45:10.241Z,2.33
2023-05-10T06:46:11.885Z,2.53
2023-05-10T06:47:13.553Z,2.40
2023-05-10T06:48:15.264Z,2.40
2023-05-10T06:49:16.954Z,2.45
2023-05-10T06:50:18.613Z,2.58
2023-05-10T06:51:22.163Z,2.53
2023-05-10T06:52:24.457Z,2.28
2023-05-10T06:53:26.209Z,2.50
2023-05-10T06:54:27.812Z,2.65
2023-05-10T06:55:30.244Z,2.75
2023-05-10T06:56:32.080Z,2.80
2023-05-10T06:57:33.832Z,2.80
2023-05-10T06:58:35.483Z,2.30
2023-05-10T06:59:37.586Z,2.30
2023-05-10T07:00:41.700Z,3.50
2023-05-10T07:01:43.775Z,2.67
2023-05-10T07:02:45.659Z,2.65
2023-05-10T07:03:47.391Z,2.88
2023-05-10T07:04:49.087Z,2.50
2023-05-10T07:05:50.693Z,2.85
2023-05-10T07:06:52.299Z,2.83
2023-05-10T07:07:53.940Z,2.50
2023-05-10T07:08:55.539Z,3.17
2023-05-10T07:09:58.698Z,2.40
2023-05-10T07:11:04.539Z,2.92
2023-05-10T07:12:07.887Z,2.50
2023-05-10T07:13:11.644Z,2.75
2023-05-10T07:14:13.298Z,2.47
2023-05-10T07:15:15.217Z,3.00
2023-05-10T07:16:17.040Z,3.08
2023-05-10T07:17:18.737Z,2.80
2023-05-10T07:18:20.459Z,2.65
2023-05-10T07:19:22.104Z,2.78
2023-05-10T07:20:23.794Z,2.83
2023-05-10T07:21:25.500Z,2.67
2023-05-10T07:22:50.197Z,2.50
2023-05-10T07:23:52.544Z,2.63
2023-05-10T07:24:54.285Z,2.88
2023-05-10T07:25:55.990Z,3.00
2023-05-10T07:26:57.581Z,3.03
2023-05-10T07:27:59.224Z,2.53
2023-05-10T07:29:00.808Z,2.97
2023-05-10T07:30:02.603Z,3.10
2023-05-10T07:31:04.268Z,2.75
2023-05-10T07:32:07.034Z,2.75
2023-05-10T07:33:10.003Z,2.70
2023-05-10T07:34:11.597Z,2.90
2023-05-10T07:35:13.235Z,2.63
2023-05-10T07:36:14.835Z,2.65
2023-05-10T07:37:16.472Z,2.70
2023-05-10T07:38:18.522Z,3.10
2023-05-10T07:39:27.155Z,2.33
2023-05-10T07:40:29.852Z,2.95
2023-05-10T07:41:31.449Z,3.10
2023-05-10T07:42:33.057Z,2.80
2023-05-10T07:43:34.648Z,2.88
2023-05-10T07:44:36.418Z,2.63
2023-05-10T07:45:38.122Z,2.50
2023-05-10T07:46:39.746Z,2.55
2023-05-10T07:47:41.424Z,2.75
2023-05-10T07:48:43.150Z,2.33
2023-05-10T07:49:44.957Z,2.63
2023-05-10T07:50:46.805Z,2.78
2023-05-10T07:51:48.408Z,3.00
2023-05-10T07:52:50.002Z,3.05
2023-05-10T07:53:51.584Z,2.80
2023-05-10T07:54:53.280Z,2.38
2023-05-10T07:55:55.826Z,2.50
2023-05-10T07:56:57.460Z,2.08
2023-05-10T07:58:02.055Z,2.42
2023-05-10T07:59:08.450Z,2.50
2023-05-10T08:00:13.857Z,2.40
2023-05-10T08:01:15.627Z,2.40
2023-05-10T08:02:17.331Z,1.90
2023-05-10T08:03:19.102Z,2.00
2023-05-10T08:04:20.900Z,2.50
2023-05-10T08:05:22.497Z,2.13
2023-05-10T08:06:24.380Z,2.85
2023-05-10T08:07:26.103Z,2.30
2023-05-10T08:08:27.779Z,2.53
2023-05-10T08:09:29.758Z,2.33
2023-05-10T08:10:31.356Z,2.28
2023-05-10T08:11:34.843Z,2.35
2023-05-10T08:12:36.728Z,2.22
2023-05-10T08:13:38.333Z,2.65
2023-05-10T08:14:39.990Z,2.63
2023-05-10T08:15:41.637Z,1.95
2023-05-10T08:16:43.459Z,2.17
2023-05-10T08:17:45.100Z,2.45
2023-05-10T08:18:48.008Z,2.30
2023-05-10T08:19:49.866Z,2.57
2023-05-10T08:20:51.446Z,2.10
2023-05-10T08:21:54.515Z,2.00
2023-05-10T08:22:56.219Z,2.15
2023-05-10T08:23:58.785Z,2.30
2023-05-10T08:25:00.385Z,2.13
2023-05-10T08:26:02.026Z,2.72
2023-05-10T08:27:03.686Z,3.00
2023-05-10T08:28:05.430Z,2.28
2023-05-10T08:29:07.069Z,2.70
2023-05-10T08:30:09.472Z,2.80
2023-05-10T08:31:11.142Z,2.53
2023-05-10T08:32:12.761Z,2.70
2023-05-10T08:33:14.466Z,2.42
2023-05-10T08:34:16.185Z,2.38
2023-05-10T08:35:17.949Z,2.53
2023-05-10T08:36:22.909Z,2.05
2023-05-10T08:37:24.869Z,2.67
2023-05-10T08:38:27.061Z,2.72
2023-05-10T08:39:30.647Z,2.60
2023-05-10T08:40:32.671Z,2.20
2023-05-10T08:41:34.611Z,2.67
2023-05-10T08:42:36.895Z,2.10
2023-05-10T08:43:38.573Z,2.20
2023-05-10T08:44:40.216Z,2.20
2023-05-10T08:45:43.494Z,2.20
2023-05-10T08:46:47.029Z,2.40
2023-05-10T08:47:48.760Z,2.38
2023-05-10T08:48:53.316Z,2.20
2023-05-10T08:49:54.981Z,2.22
2023-05-10T08:50:56.584Z,2.83
2023-05-10T08:51:58.168Z,2.47
2023-05-10T08:53:01.413Z,2.67
2023-05-10T08:54:04.011Z,2.75
2023-05-10T08:55:05.730Z,2.67
2023-05-10T08:56:07.686Z,2.40
2023-05-10T08:57:09.306Z,2.42
2023-05-10T08:58:11.051Z,2.25
2023-05-10T08:59:14.405Z,2.40
2023-05-10T09:00:16.387Z,2.53
2023-05-10T09:01:18.170Z,2.40
2023-05-10T09:02:19.821Z,2.25
2023-05-10T09:03:21.655Z,2.22
2023-05-10T09:04:23.356Z,2.40
2023-05-10T09:05:25.311Z,2.40
2023-05-10T09:06:26.954Z,2.90
2023-05-10T09:07:28.559Z,2.47
2023-05-10T09:08:31.765Z,2.28
2023-05-10T09:09:33.551Z,2.47
2023-05-10T09:10:35.523Z,2.28
2023-05-10T09:11:37.158Z,2.37
2023-05-10T09:12:38.845Z,2.30
2023-05-10T09:13:40.425Z,2.67
2023-05-10T09:14:42.005Z,2.20
2023-05-10T09:15:44.837Z,2.33
2023-05-10T09:16:46.551Z,2.13
2023-05-10T09:17:48.244Z,2.10
2023-05-10T09:18:50.809Z,2.40
2023-05-10T09:20:01.726Z,2.30
2023-05-10T09:21:03.318Z,2.10
2023-05-10T09:22:05.145Z,2.20
2023-05-10T09:23:06.960Z,2.10
2023-05-10T09:24:08.974Z,1.85
2023-05-10T09:25:17.395Z,1.60
2023-05-10T09:26:23.434Z,1.90
2023-05-10T09:27:28.000Z,2.45
2023-05-10T09:28:32.948Z,2.20
2023-05-10T09:29:42.312Z,2.80
2023-05-10T09:30:44.094Z,2.60
2023-05-10T09:31:52.003Z,2.63
2023-05-10T09:32:53.851Z,2.30
2023-05-10T09:33:55.548Z,2.05
2023-05-10T09:34:57.147Z,2.00
2023-05-10T09:36:08.268Z,2.20
2023-05-10T09:37:09.954Z,2.28
2023-05-10T09:38:11.826Z,2.05
2023-05-10T09:39:13.415Z,2.00
2023-05-10T09:40:19.457Z,2.17
2023-05-10T09:41:22.949Z,2.40
2023-05-10T09:42:25.320Z,1.98
2023-05-10T09:43:28.279Z,1.93
2023-05-10T09:44:29.881Z,2.17
2023-05-10T09:45:32.403Z,2.05
2023-05-10T09:46:36.911Z,2.08
2023-05-10T09:47:38.842Z,2.20
2023-05-10T09:48:47.061Z,2.03
2023-05-10T09:49:52.279Z,2.20
2023-05-10T09:51:00.069Z,2.20
2023-05-10T09:52:05.631Z,1.67
2023-05-10T09:53:07.766Z,2.30
2023-05-10T09:54:16.713Z,2.50
2023-05-10T09:55:22.821Z,2.28
2023-05-10T09:56:34.867Z,3.17
2023-05-10T09:57:36.483Z,2.20
2023-05-10T09:58:39.196Z,2.30
2023-05-10T09:59:43.843Z,2.67
2023-05-10T10:00:46.399Z,2.10
2023-05-10T10:01:52.170Z,2.60
2023-05-10T10:02:57.953Z,2.40
2023-05-10T10:03:59.717Z,2.17
2023-05-10T10:05:02.585Z,1.60
2023-05-10T10:06:04.461Z,2.05
2023-05-10T10:07:06.223Z,1.50
2023-05-10T10:08:07.929Z,2.03
2023-05-10T10:09:09.672Z,2.08
2023-05-10T10:10:13.455Z,2.05
2023-05-10T10:11:15.064Z,1.83
2023-05-10T10:12:16.704Z,1.95
2023-05-10T10:13:18.553Z,2.08
2023-05-10T10:14:20.225Z,2.50
2023-05-10T10:15:22.873Z,1.87
2023-05-10T10:16:25.110Z,1.90
2023-05-10T10:17:27.222Z,2.17
2023-05-10T10:18:29.789Z,2.38
2023-05-10T10:19:31.413Z,2.08
2023-05-10T10:20:32.981Z,2.38
2023-05-10T10:21:34.588Z,1.83
2023-05-10T10:22:36.230Z,2.10
2023-05-10T10:23:37.877Z,2.03
2023-05-10T10:24:41.223Z,1.90
2023-05-10T10:25:42.777Z,2.20
2023-05-10T10:26:44.471Z,1.80
2023-05-10T10:27:52.030Z,1.73
2023-05-10T10:29:15.389Z,2.30
2023-05-10T10:30:40.552Z,2.00
2023-05-10T10:31:46.588Z,1.80
2023-05-10T10:33:16.482Z,2.25
2023-05-10T10:34:29.494Z,1.95
2023-05-10T10:35:31.098Z,2.30
2023-05-10T10:36:34.854Z,2.28
2023-05-10T10:37:45.411Z,2.10
2023-05-10T10:38:46.985Z,2.30
2023-05-10T10:39:51.497Z,2.15
2023-05-10T10:41:12.959Z,2.28
2023-05-10T10:42:14.565Z,1.80
2023-05-10T10:43:26.406Z,1.52
2023-05-10T10:44:35.407Z,2.47
2023-05-10T10:45:41.982Z,1.88
2023-05-10T10:47:03.480Z,1.60
2023-05-10T10:48:23.925Z,1.52
2023-05-10T10:49:25.595Z,2.17
2023-05-10T10:50:28.346Z,2.08
2023-05-10T10:51:30.319Z,1.88
2023-05-10T10:52:36.358Z,1.80
2023-05-10T10:53:39.935Z,1.63
2023-05-10T10:54:42.906Z,1.67
2023-05-10T10:55:48.888Z,2.10
2023-05-10T10:57:14.631Z,1.70
2023-05-10T10:58:34.591Z,2.00
2023-05-10T10:59:36.384Z,1.75
2023-05-10T11:00:38.447Z,1.67
2023-05-10T11:01:40.836Z,1.70
2023-05-10T11:02:43.194Z,1.45
2023-05-10T11:04:05.100Z,1.80
2023-05-10T11:05:35.616Z,1.70
2023-05-10T11:06:37.369Z,1.65
2023-05-10T11:07:54.895Z,1.55
2023-05-10T11:08:56.487Z,1.30
2023-05-10T11:10:01.571Z,1.75
2023-05-10T11:11:05.649Z,1.25
2023-05-10T11:12:09.374Z,1.60
2023-05-10T11:13:13.716Z,1.50
2023-05-10T11:14:15.456Z,1.40
2023-05-10T11:15:17.341Z,1.30
2023-05-10T11:16:26.579Z,1.30
2023-05-10T11:17:28.983Z,1.27
2023-05-10T11:18:31.341Z,1.25
2023-05-10T11:19:33.033Z,2.00
2023-05-10T11:20:43.653Z,2.00
2023-05-10T11:21:48.937Z,1.92
2023-05-10T11:22:52.420Z,1.37
2023-05-10T11:23:58.604Z,1.00
2023-05-10T11:25:00.352Z,1.38
2023-05-10T11:26:06.968Z,1.33
2023-05-10T11:27:08.568Z,1.40
2023-05-10T11:28:10.675Z,1.65
2023-05-10T11:29:13.738Z,1.13
2023-05-10T11:30:16.071Z,1.20
2023-05-10T11:31:19.156Z,1.30
2023-05-10T11:32:20.756Z,1.55
2023-05-10T11:33:22.365Z,1.30
2023-05-10T11:34:36.781Z,1.30
2023-05-10T11:35:43.590Z,1.20
2023-05-10T11:36:45.446Z,1.55
2023-05-10T11:37:49.099Z,1.50
2023-05-10T11:38:50.780Z,1.90
2023-05-10T11:39:52.477Z,1.08
2023-05-10T11:40:54.725Z,1.30
2023-05-10T11:41:56.402Z,1.10
2023-05-10T11:42:58.252Z,1.25
2023-05-10T11:43:59.914Z,1.33
2023-05-10T11:45:02.039Z,1.20
2023-05-10T11:46:11.459Z,1.40
2023-05-10T11:47:13.119Z,1.23
2023-05-10T11:48:14.724Z,1.10
2023-05-10T11:49:16.362Z,1.20
2023-05-10T11:50:18.732Z,1.40
2023-05-10T11:51:24.173Z,1.40
2023-05-10T11:52:25.944Z,1.13
2023-05-10T11:53:29.461Z,0.90
2023-05-10T11:54:32.042Z,1.50
2023-05-10T11:55:34.737Z,1.20
2023-05-10T11:56:36.440Z,1.02
2023-05-10T11:57:39.664Z,1.00
2023-05-10T11:58:41.330Z,1.15
2023-05-10T11:59:43.338Z,1.20
2023-05-10T12:00:45.002Z,1.10
2023-05-10T12:01:46.668Z,1.20
2023-05-10T12:02:49.121Z,1.27
2023-05-10T12:03:51.581Z,1.17
2023-05-10T12:04:53.338Z,1.20
2023-05-10T12:05:55.986Z,1.10
2023-05-10T12:06:57.555Z,1.10
2023-05-10T12:08:15.590Z,1.08
2023-05-10T12:09:19.195Z,1.05
2023-05-10T12:10:28.560Z,1.08
2023-05-10T12:11:30.877Z,1.70
2023-05-10T12:12:45.324Z,2.72
2023-05-10T12:13:49.830Z,1.00
2023-05-10T12:14:51.875Z,1.20
2023-05-10T12:15:53.543Z,1.00
2023-05-10T12:16:55.429Z,1.15
2023-05-10T12:17:57.422Z,0.90
2023-05-10T12:19:00.998Z,1.02
2023-05-10T12:20:18.580Z,0.90
2023-05-10T12:21:21.411Z,1.10
2023-05-10T12:22:23.010Z,1.20
2023-05-10T12:23:24.632Z,1.30
2023-05-10T12:24:26.464Z,1.13
2023-05-10T12:25:31.474Z,1.15
2023-05-10T12:26:33.398Z,1.20
2023-05-10T12:27:40.948Z,0.98
2023-05-10T12:28:42.532Z,1.40
2023-05-10T12:29:45.583Z,1.05
2023-05-10T12:30:47.179Z,1.15
2023-05-10T12:31:59.493Z,0.90
2023-05-10T12:33:11.299Z,0.90
2023-05-10T12:34:12.851Z,0.95
2023-05-10T12:35:14.426Z,1.35
2023-05-10T12:36:16.655Z,1.23
2023-05-10T12:37:19.283Z,4.97
2023-05-10T12:38:30.439Z,1.40
2023-05-10T12:39:41.139Z,1.05
2023-05-10T12:40:42.836Z,1.00
2023-05-10T12:41:44.492Z,3.03
2023-05-10T12:42:46.138Z,4.47
2023-05-10T12:43:47.762Z,2.30
2023-05-10T12:44:49.381Z,1.55
2023-05-10T12:45:51.168Z,1.25
2023-05-10T12:46:52.766Z,1.35
2023-05-10T12:47:54.511Z,1.10
2023-05-10T12:49:07.882Z,1.23
2023-05-10T12:50:11.356Z,0.98
2023-05-10T12:51:14.195Z,1.13
2023-05-10T12:52:15.759Z,1.10
2023-05-10T12:53:18.412Z,1.27
2023-05-10T12:54:20.274Z,0.90
2023-05-10T12:55:21.858Z,1.00
2023-05-10T12:56:23.484Z,1.15
2023-05-10T12:57:25.044Z,1.38
2023-05-10T12:58:35.607Z,1.00
2023-05-10T12:59:38.164Z,1.38
2023-05-10T13:00:40.026Z,1.00
2023-05-10T13:01:41.599Z,1.27
2023-05-10T13:02:43.264Z,1.15
2023-05-10T13:03:44.894Z,1.10
2023-05-10T13:04:48.939Z,0.95
2023-05-10T13:05:52.508Z,1.00
2023-05-10T13:06:54.101Z,1.15
2023-05-10T13:07:55.655Z,1.13
2023-05-10T13:08:58.563Z,1.10
2023-05-10T13:10:00.212Z,1.10
2023-05-10T13:11:03.702Z,1.10
2023-05-10T13:12:05.726Z,1.02
2023-05-10T13:13:09.316Z,1.23
2023-05-10T13:14:10.953Z,1.40
2023-05-10T13:15:12.496Z,1.08
2023-05-10T13:16:14.100Z,1.15
2023-05-10T13:17:15.782Z,0.98
2023-05-10T13:18:17.425Z,0.80
2023-05-10T13:19:19.217Z,1.10
2023-05-10T13:20:20.959Z,1.30
2023-05-10T13:21:22.506Z,1.10
2023-05-10T13:22:36.533Z,1.30
2023-05-10T13:23:41.606Z,1.10
2023-05-10T13:24:43.215Z,1.00
2023-05-10T13:25:44.874Z,1.00
2023-05-10T13:26:46.458Z,1.10
2023-05-10T13:27:48.023Z,1.10
2023-05-10T13:28:50.628Z,5.70
2023-05-10T13:29:52.172Z,2.80
2023-05-10T13:30:53.830Z,1.92
2023-05-10T13:31:55.469Z,1.25
2023-05-10T13:32:57.157Z,0.88
2023-05-10T13:33:58.855Z,1.65
2023-05-10T13:35:00.453Z,1.33
2023-05-10T13:36:01.984Z,1.10
2023-05-10T13:37:03.704Z,1.20
2023-05-10T13:38:05.318Z,0.98
2023-05-10T13:39:06.933Z,1.10
2023-05-10T13:40:08.964Z,0.80
2023-05-10T13:41:11.353Z,0.90
2023-05-10T13:42:12.932Z,1.10
2023-05-10T13:43:14.667Z,1.27
2023-05-10T13:44:16.511Z,1.30
2023-05-10T13:45:18.105Z,1.25
2023-05-10T13:46:20.511Z,1.02
2023-05-10T13:47:23.441Z,1.33
2023-05-10T13:48:25.074Z,1.08
2023-05-10T13:49:26.824Z,1.00
2023-05-10T13:50:28.438Z,0.90
2023-05-10T13:51:30.197Z,1.00
2023-05-10T13:52:31.790Z,1.00
2023-05-10T13:53:33.365Z,1.30
2023-05-10T13:54:35.426Z,1.30
2023-05-10T13:55:37.353Z,1.17
2023-05-10T13:56:38.987Z,1.20
2023-05-10T13:57:40.536Z,1.42
2023-05-10T13:58:42.318Z,1.33
2023-05-10T13:59:43.870Z,1.40
2023-05-10T14:00:46.109Z,1.20
2023-05-10T14:01:47.784Z,1.40
2023-05-10T14:02:49.454Z,1.20